aviador You're here:

KTWF Decoded Metar

TWIN FALLS in ID, USA
Report Time2018-05-25 08:53:00
UTC Time2018-05-25 09:03:42
Flight Rules vfr VFR
Wind130° at 03 kt
W.Decomp.*RWY 12: 3.0 kt HW 0.3 kt LCW
RWY 07: 2.2 kt HW 2.1 kt RCW
W.Rank130° ranks 29
Current wind is below 130° avg. (6.9)
Visibility9999 m
Phenomena:N/A
Clouds:N/A
CeilingNone
Temp08°C (ISA +1)
Dew Point08°C (100% RH)
AAT6.5°C
QNH1016 hPa
Density Alt4,360 ft
Elevation4,154 ft
Report Wrong Elevation
Raw Report
KTWF 250853Z AUTO 13003KT 10SM CLR 08/08 A2999 RMK AO2 SLP111
T00830078 58009=

Extra information for KTWF:More info

Metar Taf Metar & Taf Last 4 Metars F.Rules Stats Wind Profile Meteogram Temp Stats Airport Information Weather charts Add Link Nearby VenuesMetar ALERT Operation Metar Decoded Social comments

AIRNAV info for KTWF